createdAt,value
2022-07-25T00:00:42.210Z,100325.81
2022-07-25T00:01:44.770Z,100319.38
2022-07-25T00:02:48.446Z,100316.91
2022-07-25T00:03:51.245Z,100317.22
2022-07-25T00:04:53.719Z,100316.75
2022-07-25T00:05:56.020Z,100317.91
2022-07-25T00:06:58.348Z,100318.72
2022-07-25T00:08:00.601Z,100314.59
2022-07-25T00:09:02.846Z,100314.13
2022-07-25T00:10:05.737Z,100310.00
2022-07-25T00:11:07.946Z,100319.22
2022-07-25T00:12:11.193Z,100309.16
2022-07-25T00:13:13.906Z,100305.53
2022-07-25T00:14:16.103Z,100306.69
2022-07-25T00:15:18.332Z,100307.34
2022-07-25T00:16:20.626Z,100307.69
2022-07-25T00:17:22.937Z,100305.22
2022-07-25T00:18:25.159Z,100304.38
2022-07-25T00:19:27.648Z,100313.13
2022-07-25T00:20:29.853Z,100300.25
2022-07-25T00:21:32.850Z,100305.84
2022-07-25T00:22:37.772Z,100302.56
2022-07-25T00:23:40.024Z,100306.53
2022-07-25T00:24:42.350Z,100293.66
2022-07-25T00:25:44.563Z,100295.09
2022-07-25T00:26:46.778Z,100294.28
2022-07-25T00:27:48.991Z,100299.91
2022-07-25T00:28:51.215Z,100300.25
2022-07-25T00:29:53.454Z,100297.75
2022-07-25T00:30:55.829Z,100294.13
2022-07-25T00:31:58.087Z,100294.13
2022-07-25T00:33:00.286Z,100290.81
2022-07-25T00:34:04.496Z,100299.22
2022-07-25T00:35:07.231Z,100295.59
2022-07-25T00:36:13.128Z,100297.09
2022-07-25T00:37:15.438Z,100299.09
2022-07-25T00:38:18.841Z,100293.78
2022-07-25T00:39:21.076Z,100294.13
2022-07-25T00:40:23.423Z,100291.13
2022-07-25T00:41:25.673Z,100293.13
2022-07-25T00:42:27.863Z,100293.47
2022-07-25T00:43:30.135Z,100297.41
2022-07-25T00:44:33.567Z,100285.38
2022-07-25T00:45:35.762Z,100294.94
2022-07-25T00:46:39.397Z,100286.88
2022-07-25T00:47:41.663Z,100289.66
2022-07-25T00:48:44.607Z,100290.81
2022-07-25T00:49:47.034Z,100295.63
2022-07-25T00:50:49.489Z,100294.78
2022-07-25T00:51:53.496Z,100287.84
2022-07-25T00:52:55.810Z,100294.28
2022-07-25T00:53:58.137Z,100294.94
2022-07-25T00:55:01.149Z,100287.66
2022-07-25T00:56:04.571Z,100294.94
2022-07-25T00:57:06.805Z,100294.13
2022-07-25T00:58:08.989Z,100283.25
2022-07-25T00:59:11.367Z,100281.59
2022-07-25T01:00:15.260Z,100285.53
2022-07-25T01:01:19.783Z,100282.72
2022-07-25T01:02:22.051Z,100276.63
2022-07-25T01:03:24.348Z,100282.22
2022-07-25T01:04:26.598Z,100277.78
2022-07-25T01:05:28.807Z,100277.28
2022-07-25T01:06:31.769Z,100280.41
2022-07-25T01:07:35.553Z,100272.34
2022-07-25T01:08:38.132Z,100271.50
2022-07-25T01:09:40.311Z,100276.28
2022-07-25T01:10:46.691Z,100270.69
2022-07-25T01:11:49.139Z,100272.97
2022-07-25T01:12:54.193Z,100271.34
2022-07-25T01:13:56.493Z,100276.97
2022-07-25T01:14:58.769Z,100271.34
2022-07-25T01:16:01.050Z,100276.78
2022-07-25T01:17:03.335Z,100264.72
2022-07-25T01:18:05.833Z,100270.34
2022-07-25T01:19:08.231Z,100265.06
2022-07-25T01:20:17.806Z,100273.81
2022-07-25T01:21:20.746Z,100264.56
2022-07-25T01:22:22.975Z,100264.06
2022-07-25T01:23:25.182Z,100267.69
2022-07-25T01:24:27.540Z,100266.88
2022-07-25T01:25:29.796Z,100261.59
2022-07-25T01:26:32.050Z,100261.59
2022-07-25T01:27:36.780Z,100261.09
2022-07-25T01:28:39.269Z,100256.63
2022-07-25T01:29:41.518Z,100256.16
2022-07-25T01:30:44.099Z,100246.88
2022-07-25T01:31:46.463Z,100252.81
2022-07-25T01:32:48.776Z,100249.53
2022-07-25T01:33:50.982Z,100249.84
2022-07-25T01:34:53.263Z,100250.19
2022-07-25T01:35:55.460Z,100242.94
2022-07-25T01:36:57.646Z,100249.38
2022-07-25T01:37:59.875Z,100248.84
2022-07-25T01:39:05.046Z,100243.25
2022-07-25T01:40:09.202Z,100242.44
2022-07-25T01:41:14.457Z,100243.56
2022-07-25T01:42:25.103Z,100251.97
2022-07-25T01:43:27.304Z,100243.88
2022-07-25T01:44:29.581Z,100234.66
2022-07-25T01:45:31.847Z,100241.41
2022-07-25T01:46:34.166Z,100237.78
2022-07-25T01:47:36.478Z,100240.91
2022-07-25T01:48:40.225Z,100240.09
2022-07-25T01:49:42.569Z,100237.28
2022-07-25T01:50:44.796Z,100237.94
2022-07-25T01:51:47.059Z,100241.91
2022-07-25T01:52:50.882Z,100229.84
2022-07-25T01:53:53.170Z,100236.59
2022-07-25T01:54:55.540Z,100243.06
2022-07-25T01:55:58.734Z,100229.66
2022-07-25T01:57:05.028Z,100233.31
2022-07-25T01:58:08.274Z,100228.84
2022-07-25T01:59:10.777Z,100222.75
2022-07-25T02:00:15.197Z,100225.25
2022-07-25T02:01:17.480Z,100230.34
2022-07-25T02:02:21.564Z,100231.81
2022-07-25T02:03:32.103Z,100234.63
2022-07-25T02:04:35.785Z,100228.19
2022-07-25T02:05:38.078Z,100227.69
2022-07-25T02:06:41.597Z,100229.66
2022-07-25T02:07:43.864Z,100225.22
2022-07-25T02:08:46.078Z,100225.53
2022-07-25T02:09:56.276Z,100225.53
2022-07-25T02:10:59.706Z,100224.69
2022-07-25T02:12:02.143Z,100221.09
2022-07-25T02:13:04.658Z,100225.03
2022-07-25T02:14:07.838Z,100231.78
2022-07-25T02:15:10.714Z,100224.56
2022-07-25T02:16:13.850Z,100221.22
2022-07-25T02:17:16.659Z,100231.28
2022-07-25T02:18:21.325Z,100222.38
2022-07-25T02:19:23.595Z,100220.41
2022-07-25T02:20:25.765Z,100222.72
2022-07-25T02:21:28.004Z,100218.59
2022-07-25T02:22:30.289Z,100220.56
2022-07-25T02:23:33.137Z,100222.53
2022-07-25T02:24:37.229Z,100220.56
2022-07-25T02:25:39.608Z,100212.78
2022-07-25T02:26:41.944Z,100218.72
2022-07-25T02:27:44.228Z,100208.66
2022-07-25T02:28:46.544Z,100215.94
2022-07-25T02:29:51.758Z,100221.88
2022-07-25T02:30:54.131Z,100223.84
2022-07-25T02:31:56.428Z,100214.59
2022-07-25T02:32:58.983Z,100221.06
2022-07-25T02:34:01.229Z,100213.28
2022-07-25T02:35:04.609Z,100218.88
2022-07-25T02:36:15.225Z,100213.28
2022-07-25T02:37:17.493Z,100215.25
2022-07-25T02:38:19.804Z,100215.59
2022-07-25T02:39:22.061Z,100206.34
2022-07-25T02:40:24.254Z,100214.75
2022-07-25T02:41:26.551Z,100215.06
2022-07-25T02:42:28.740Z,100211.47
2022-07-25T02:43:31.264Z,100211.47
2022-07-25T02:44:33.479Z,100210.63
2022-07-25T02:45:35.783Z,100210.63
2022-07-25T02:46:38.304Z,100212.94
2022-07-25T02:47:40.729Z,100212.09
2022-07-25T02:48:43.037Z,100200.06
2022-07-25T02:49:45.705Z,100209.63
2022-07-25T02:50:48.009Z,100204.03
2022-07-25T02:51:50.223Z,100204.03
2022-07-25T02:52:52.450Z,100206.81
2022-07-25T02:53:57.669Z,100210.75
2022-07-25T02:55:02.207Z,100203.50
2022-07-25T02:56:06.244Z,100201.88
2022-07-25T02:57:08.437Z,100198.25
2022-07-25T02:58:11.367Z,100197.44
2022-07-25T02:59:13.621Z,100195.78
2022-07-25T03:00:16.618Z,100204.16
2022-07-25T03:01:18.926Z,100202.19
2022-07-25T03:02:21.165Z,100198.56
2022-07-25T03:03:23.410Z,100200.84
2022-07-25T03:04:25.824Z,100196.56
2022-07-25T03:05:28.130Z,100198.91
2022-07-25T03:06:30.314Z,100194.44
2022-07-25T03:07:32.510Z,100200.84
2022-07-25T03:08:37.017Z,100199.22
2022-07-25T03:09:39.297Z,100204.81
2022-07-25T03:10:43.436Z,100211.25
2022-07-25T03:11:45.669Z,100194.78
2022-07-25T03:12:47.872Z,100200.38
2022-07-25T03:13:50.070Z,100194.78
2022-07-25T03:14:52.312Z,100190.63
2022-07-25T03:15:56.705Z,100194.25
2022-07-25T03:16:59.017Z,100197.06
2022-07-25T03:18:01.251Z,100194.25
2022-07-25T03:19:03.588Z,100191.47
2022-07-25T03:20:07.088Z,100199.03
2022-07-25T03:21:09.303Z,100193.78
2022-07-25T03:22:11.585Z,100188.97
2022-07-25T03:23:13.955Z,100188.97
2022-07-25T03:24:17.672Z,100187.31
2022-07-25T03:25:21.678Z,100188.97
2022-07-25T03:26:24.259Z,100190.13
2022-07-25T03:27:27.889Z,100195.44
2022-07-25T03:28:30.097Z,100188.97
2022-07-25T03:29:32.288Z,100192.13
2022-07-25T03:30:34.546Z,100184.53
2022-07-25T03:31:36.820Z,100192.94
2022-07-25T03:32:39.668Z,100194.91
2022-07-25T03:33:41.863Z,100188.50
2022-07-25T03:34:44.667Z,100184.03
2022-07-25T03:35:46.966Z,100186.84
2022-07-25T03:36:49.364Z,100181.56
2022-07-25T03:37:51.695Z,100182.38
2022-07-25T03:38:55.967Z,100179.91
2022-07-25T03:39:58.243Z,100178.78
2022-07-25T03:41:00.447Z,100177.94
2022-07-25T03:42:02.644Z,100181.56
2022-07-25T03:43:04.884Z,100175.13
2022-07-25T03:44:07.441Z,100174.00
2022-07-25T03:45:10.225Z,100174.31
2022-07-25T03:46:14.824Z,100174.00
2022-07-25T03:47:20.630Z,100170.38
2022-07-25T03:48:25.030Z,100174.31
2022-07-25T03:49:27.251Z,100175.97
2022-07-25T03:50:30.275Z,100167.56
2022-07-25T03:51:32.550Z,100181.25
2022-07-25T03:52:34.810Z,100178.78
2022-07-25T03:53:56.982Z,100176.47
2022-07-25T03:54:59.156Z,100174.50
2022-07-25T03:56:01.346Z,100175.81
2022-07-25T03:57:03.694Z,100176.13
2022-07-25T03:58:06.015Z,100175.31
2022-07-25T03:59:09.942Z,100173.84
2022-07-25T04:00:12.687Z,100173.84
2022-07-25T04:01:15.010Z,100173.19
2022-07-25T04:02:17.381Z,100173.19
2022-07-25T04:03:19.881Z,100174.03
2022-07-25T04:04:22.108Z,100172.84
2022-07-25T04:05:24.513Z,100177.31
2022-07-25T04:06:26.846Z,100164.97
2022-07-25T04:07:29.023Z,100163.81
2022-07-25T04:08:33.463Z,100165.47
2022-07-25T04:09:35.664Z,100159.53
2022-07-25T04:10:37.849Z,100161.19
2022-07-25T04:11:40.145Z,100158.06
2022-07-25T04:12:42.382Z,100156.41
2022-07-25T04:13:44.663Z,100164.16
2022-07-25T04:14:46.904Z,100157.41
2022-07-25T04:15:49.087Z,100157.06
2022-07-25T04:16:53.910Z,100157.91
2022-07-25T04:17:56.143Z,100152.50
2022-07-25T04:18:58.423Z,100151.31
2022-07-25T04:20:02.776Z,100144.25
2022-07-25T04:21:08.471Z,100139.47
2022-07-25T04:22:14.506Z,100143.63
2022-07-25T04:23:16.707Z,100144.94
2022-07-25T04:24:18.991Z,100144.28
2022-07-25T04:25:21.239Z,100138.66
2022-07-25T04:26:23.586Z,100140.00
2022-07-25T04:27:25.852Z,100134.06
2022-07-25T04:28:28.615Z,100139.31
2022-07-25T04:29:30.919Z,100133.09
2022-07-25T04:30:33.108Z,100135.22
2022-07-25T04:31:35.387Z,100136.19
2022-07-25T04:32:37.685Z,100128.31
2022-07-25T04:33:40.884Z,100122.03
2022-07-25T04:34:44.799Z,100125.81
2022-07-25T04:35:47.558Z,100130.44
2022-07-25T04:36:49.806Z,100128.63
2022-07-25T04:37:52.039Z,100127.69
2022-07-25T04:38:54.234Z,100119.41
2022-07-25T04:39:56.427Z,100120.44
2022-07-25T04:40:58.897Z,100122.22
2022-07-25T04:42:01.675Z,100122.06
2022-07-25T04:43:04.707Z,100126.34
2022-07-25T04:44:08.511Z,100114.44
2022-07-25T04:45:11.544Z,100123.19
2022-07-25T04:46:19.072Z,100113.47
2022-07-25T04:47:21.290Z,100111.97
2022-07-25T04:48:23.640Z,100110.63
2022-07-25T04:49:25.928Z,100101.22
2022-07-25T04:50:29.622Z,100110.25
2022-07-25T04:51:31.806Z,100101.66
2022-07-25T04:52:34.058Z,100103.13
2022-07-25T04:53:36.272Z,100108.59
2022-07-25T04:54:38.475Z,100098.84
2022-07-25T04:55:40.932Z,100106.72
2022-07-25T04:56:43.111Z,100103.72
2022-07-25T04:57:47.115Z,100096.75
2022-07-25T04:58:49.553Z,100091.78
2022-07-25T04:59:51.995Z,100098.84
2022-07-25T05:00:54.257Z,100099.47
2022-07-25T05:01:56.555Z,100094.97
2022-07-25T05:02:59.295Z,100098.06
2022-07-25T05:04:01.536Z,100095.91
2022-07-25T05:05:04.654Z,100094.22
2022-07-25T05:06:07.244Z,100091.22
2022-07-25T05:07:09.442Z,100102.38
2022-07-25T05:08:11.669Z,100094.09
2022-07-25T05:09:13.853Z,100089.06
2022-07-25T05:10:16.113Z,100086.41
2022-07-25T05:11:18.295Z,100089.84
2022-07-25T05:12:20.547Z,100093.25
2022-07-25T05:13:22.749Z,100091.41
2022-07-25T05:14:25.324Z,100092.00
2022-07-25T05:15:27.523Z,100095.78
2022-07-25T05:16:29.867Z,100088.78
2022-07-25T05:17:32.270Z,100089.03
2022-07-25T05:18:37.146Z,100090.81
2022-07-25T05:19:39.336Z,100080.66
2022-07-25T05:20:41.587Z,100086.06
2022-07-25T05:21:43.794Z,100081.88
2022-07-25T05:22:46.506Z,100074.03
2022-07-25T05:23:48.731Z,100078.75
2022-07-25T05:24:53.935Z,100080.66
2022-07-25T05:25:56.204Z,100073.25
2022-07-25T05:26:58.432Z,100073.97
2022-07-25T05:28:02.129Z,100080.66
2022-07-25T05:29:04.372Z,100072.97
2022-07-25T05:30:08.060Z,100073.22
2022-07-25T05:31:10.416Z,100072.25
2022-07-25T05:32:12.684Z,100070.00
2022-07-25T05:33:15.151Z,100071.91
2022-07-25T05:34:17.352Z,100062.50
2022-07-25T05:35:19.545Z,100066.72
2022-07-25T05:36:21.736Z,100066.91
2022-07-25T05:37:24.054Z,100071.94
2022-07-25T05:38:26.286Z,100074.22
2022-07-25T05:39:28.467Z,100067.13
2022-07-25T05:40:30.732Z,100081.47
2022-07-25T05:41:32.970Z,100065.94
2022-07-25T05:42:35.914Z,100069.78
2022-07-25T05:43:39.466Z,100074.81
2022-07-25T05:44:41.751Z,100069.84
2022-07-25T05:45:44.309Z,100075.34
2022-07-25T05:46:46.521Z,100072.25
2022-07-25T05:47:48.767Z,100067.63
2022-07-25T05:48:50.979Z,100061.41
2022-07-25T05:49:54.517Z,100060.84
2022-07-25T05:50:57.787Z,100069.13
2022-07-25T05:52:00.025Z,100057.22
2022-07-25T05:53:02.276Z,100065.50
2022-07-25T05:54:04.841Z,100056.41
2022-07-25T05:55:07.647Z,100057.03
2022-07-25T05:56:10.614Z,100043.56
2022-07-25T05:57:13.515Z,100053.03
2022-07-25T05:58:15.776Z,100038.72
2022-07-25T05:59:17.969Z,100038.91
2022-07-25T06:00:20.367Z,100048.00
2022-07-25T06:01:22.672Z,100044.94
2022-07-25T06:02:25.179Z,100051.97
2022-07-25T06:03:27.555Z,100042.47
2022-07-25T06:04:30.536Z,100039.38
2022-07-25T06:05:32.722Z,100044.81
2022-07-25T06:06:35.446Z,100045.34
2022-07-25T06:07:37.703Z,100045.84
2022-07-25T06:08:39.924Z,100045.19
2022-07-25T06:09:42.987Z,100046.53
2022-07-25T06:10:45.229Z,100051.50
2022-07-25T06:11:54.519Z,100050.03
2022-07-25T06:13:02.436Z,100041.25
2022-07-25T06:14:04.832Z,100041.38
2022-07-25T06:15:22.091Z,100044.31
2022-07-25T06:16:25.594Z,100040.03
2022-07-25T06:17:32.226Z,100043.81
2022-07-25T06:18:34.779Z,100031.00
2022-07-25T06:19:39.197Z,100033.13
2022-07-25T06:20:41.392Z,100035.34
2022-07-25T06:21:43.585Z,100027.34
2022-07-25T06:22:45.791Z,100034.78
2022-07-25T06:23:48.045Z,100028.03
2022-07-25T06:24:50.226Z,100023.31
2022-07-25T06:25:52.537Z,100036.38
2022-07-25T06:26:54.723Z,100024.78
2022-07-25T06:27:57.017Z,100029.41
2022-07-25T06:29:01.885Z,100022.63
2022-07-25T06:30:06.625Z,100028.81
2022-07-25T06:31:13.649Z,100030.22
2022-07-25T06:32:15.911Z,100023.84
2022-07-25T06:33:18.279Z,100030.03
2022-07-25T06:34:20.474Z,100024.47
2022-07-25T06:35:22.777Z,100025.84
2022-07-25T06:36:32.739Z,100032.03
2022-07-25T06:37:40.525Z,100027.31
2022-07-25T06:38:42.806Z,100031.88
2022-07-25T06:39:46.060Z,100021.78
2022-07-25T06:40:48.570Z,100025.16
2022-07-25T06:41:51.425Z,100020.72
2022-07-25T06:42:53.688Z,100016.78
2022-07-25T06:43:56.470Z,100007.91
2022-07-25T06:44:58.696Z,100011.66
2022-07-25T06:46:01.242Z,100010.16
2022-07-25T06:47:03.734Z,100009.00
2022-07-25T06:48:06.125Z,100011.06
2022-07-25T06:49:08.486Z,100011.16
2022-07-25T06:50:25.996Z,100005.53
2022-07-25T06:51:28.278Z,100003.53
2022-07-25T06:52:30.474Z,99997.56
2022-07-25T06:53:32.947Z,99993.97
2022-07-25T06:54:35.333Z,99997.25
2022-07-25T06:55:37.746Z,99991.22
2022-07-25T06:56:40.006Z,99991.66
2022-07-25T06:57:43.138Z,99995.75
2022-07-25T06:58:45.348Z,99990.53
2022-07-25T06:59:47.587Z,99988.13
2022-07-25T07:00:53.254Z,99987.34
2022-07-25T07:01:55.564Z,99989.00
2022-07-25T07:03:01.508Z,99991.47
2022-07-25T07:04:05.283Z,99990.72
2022-07-25T07:05:08.141Z,99986.25
2022-07-25T07:06:10.756Z,99992.38
2022-07-25T07:07:13.663Z,99985.88
2022-07-25T07:08:15.895Z,99985.06
2022-07-25T07:09:18.116Z,99992.00
2022-07-25T07:10:22.207Z,99988.31
2022-07-25T07:11:24.591Z,99984.66
2022-07-25T07:12:26.803Z,99988.69
2022-07-25T07:13:29.217Z,99989.09
2022-07-25T07:14:31.439Z,99983.78
2022-07-25T07:15:34.081Z,99988.25
2022-07-25T07:16:36.823Z,99979.25
2022-07-25T07:17:39.354Z,99986.16
2022-07-25T07:18:48.829Z,99977.53
2022-07-25T07:19:51.892Z,99982.78
2022-07-25T07:20:54.530Z,99988.06
2022-07-25T07:21:56.976Z,99978.63
2022-07-25T07:22:59.177Z,99979.81
2022-07-25T07:24:01.354Z,99976.06
2022-07-25T07:25:05.833Z,99975.19
2022-07-25T07:26:08.515Z,99980.44
2022-07-25T07:27:10.698Z,99970.59
2022-07-25T07:28:13.764Z,99977.88
2022-07-25T07:29:15.939Z,99972.91
2022-07-25T07:30:23.775Z,99975.66
2022-07-25T07:31:27.738Z,99976.03
2022-07-25T07:32:30.926Z,99967.81
2022-07-25T07:33:33.627Z,99977.13
2022-07-25T07:34:36.424Z,99981.13
2022-07-25T07:35:38.617Z,99977.81
2022-07-25T07:36:41.681Z,99974.91
2022-07-25T07:37:44.615Z,99979.34
2022-07-25T07:38:48.385Z,99981.75
2022-07-25T07:39:50.560Z,99974.31
2022-07-25T07:40:54.054Z,99973.44
2022-07-25T07:41:56.227Z,99967.66
2022-07-25T07:43:01.440Z,99970.03
2022-07-25T07:44:03.856Z,99967.94
2022-07-25T07:45:26.549Z,99975.25
2022-07-25T07:46:28.854Z,99971.09
2022-07-25T07:47:31.194Z,99967.75
2022-07-25T07:48:33.942Z,99963.22
2022-07-25T07:49:37.155Z,99958.66
2022-07-25T07:50:39.559Z,99958.19
2022-07-25T07:51:45.351Z,99957.28
2022-07-25T07:52:48.508Z,99955.56
2022-07-25T07:54:09.419Z,99946.50
2022-07-25T07:55:30.868Z,99952.94
2022-07-25T07:56:33.063Z,99953.25
2022-07-25T07:57:35.240Z,99956.06
2022-07-25T07:58:37.437Z,99953.13
2022-07-25T07:59:39.670Z,99942.78
2022-07-25T08:00:46.495Z,99950.56
2022-07-25T08:01:48.787Z,99949.69
2022-07-25T08:02:52.991Z,99947.97
2022-07-25T08:03:55.249Z,99942.53
2022-07-25T08:04:57.721Z,99953.06
2022-07-25T08:05:59.961Z,99953.41
2022-07-25T08:07:02.139Z,99951.28
2022-07-25T08:08:05.174Z,99945.41
2022-07-25T08:09:07.615Z,99943.28
2022-07-25T08:10:10.881Z,99942.81
2022-07-25T08:11:13.438Z,99942.31
2022-07-25T08:12:15.614Z,99940.16
2022-07-25T08:13:23.222Z,99937.97
2022-07-25T08:14:25.437Z,99936.69
2022-07-25T08:15:27.676Z,99940.66
2022-07-25T08:16:29.890Z,99940.94
2022-07-25T08:17:32.099Z,99928.97
2022-07-25T08:18:34.432Z,99931.78
2022-07-25T08:19:37.242Z,99931.63
2022-07-25T08:20:39.757Z,99928.72
2022-07-25T08:21:41.996Z,99943.72
2022-07-25T08:22:47.023Z,99947.69
2022-07-25T08:23:49.453Z,99930.41
2022-07-25T08:24:51.687Z,99927.81
2022-07-25T08:25:54.531Z,99933.81
2022-07-25T08:26:56.715Z,99919.78
2022-07-25T08:27:59.257Z,99920.88
2022-07-25T08:29:18.699Z,99930.59
2022-07-25T08:30:21.839Z,99921.47
2022-07-25T08:31:24.347Z,99924.59
2022-07-25T08:32:27.784Z,99925.69
2022-07-25T08:33:30.035Z,99922.28
2022-07-25T08:34:32.532Z,99917.25
2022-07-25T08:35:35.257Z,99917.56
2022-07-25T08:36:37.576Z,99917.84
2022-07-25T08:37:39.830Z,99918.13
2022-07-25T08:38:42.099Z,99921.34
2022-07-25T08:39:45.587Z,99917.94
2022-07-25T08:40:48.505Z,99914.63
2022-07-25T08:41:54.480Z,99918.66
2022-07-25T08:42:58.562Z,99912.38
2022-07-25T08:44:03.594Z,99914.34
2022-07-25T08:45:08.621Z,99903.59
2022-07-25T08:46:14.021Z,99907.59
2022-07-25T08:47:16.569Z,99907.50
2022-07-25T08:48:21.630Z,99901.22
2022-07-25T08:49:23.957Z,99908.44
2022-07-25T08:50:28.793Z,99903.41
2022-07-25T08:51:32.531Z,99905.72
2022-07-25T08:52:37.304Z,99902.31
2022-07-25T08:53:40.511Z,99914.13
2022-07-25T08:54:45.226Z,99907.84
2022-07-25T08:55:48.414Z,99905.31
2022-07-25T08:56:51.005Z,99898.19
2022-07-25T08:57:54.600Z,99896.84
2022-07-25T08:58:59.061Z,99899.97
2022-07-25T09:00:02.603Z,99898.97
2022-07-25T09:01:04.886Z,99894.75
2022-07-25T09:02:08.973Z,99888.44
2022-07-25T09:03:11.595Z,99892.69
2022-07-25T09:04:14.142Z,99896.19
2022-07-25T09:05:18.755Z,99889.38
2022-07-25T09:06:22.667Z,99877.69
2022-07-25T09:07:41.354Z,99896.34
2022-07-25T09:08:57.933Z,99889.09
2022-07-25T09:10:13.051Z,99883.13
2022-07-25T09:11:26.395Z,99872.19
2022-07-25T09:12:29.835Z,99881.88
2022-07-25T09:13:38.557Z,99873.00
2022-07-25T09:14:43.386Z,99875.31
2022-07-25T09:15:56.657Z,99883.84
2022-07-25T09:17:07.244Z,99873.78
2022-07-25T09:18:27.362Z,99880.94
2022-07-25T09:19:31.712Z,99870.47
2022-07-25T09:20:48.775Z,99874.81
2022-07-25T09:22:10.330Z,99861.44
2022-07-25T09:23:15.759Z,99870.78
2022-07-25T09:24:18.977Z,99861.06
2022-07-25T09:25:23.624Z,99859.34
2022-07-25T09:26:25.824Z,99866.13
2022-07-25T09:27:34.645Z,99866.34
2022-07-25T09:28:56.239Z,99863.69
2022-07-25T09:29:58.451Z,99859.84
2022-07-25T09:31:02.228Z,99866.63
2022-07-25T09:32:22.156Z,99866.50
2022-07-25T09:33:26.292Z,99869.75
2022-07-25T09:34:37.936Z,99871.69
2022-07-25T09:35:41.456Z,99876.06
2022-07-25T09:36:54.663Z,99871.78
2022-07-25T09:38:10.891Z,99872.94
2022-07-25T09:39:13.114Z,99868.31
2022-07-25T09:40:16.338Z,99864.47
2022-07-25T09:41:18.560Z,99860.63
2022-07-25T09:42:32.391Z,99857.63
2022-07-25T09:43:43.507Z,99860.38
2022-07-25T09:45:12.584Z,99863.13
2022-07-25T09:46:16.061Z,99845.66
2022-07-25T09:47:18.426Z,99850.50
2022-07-25T09:48:21.231Z,99854.56
2022-07-25T09:49:23.428Z,99847.81
2022-07-25T09:50:27.975Z,99848.97
2022-07-25T09:51:30.771Z,99846.41
2022-07-25T09:52:33.938Z,99851.25
2022-07-25T09:53:36.329Z,99852.84
2022-07-25T09:54:39.867Z,99850.28
2022-07-25T09:55:42.097Z,99849.84
2022-07-25T09:56:44.303Z,99841.63
2022-07-25T09:57:49.728Z,99856.41
2022-07-25T09:58:52.994Z,99850.63
2022-07-25T09:59:56.168Z,99841.50
2022-07-25T10:01:05.251Z,99846.00
2022-07-25T10:02:15.006Z,99840.22
2022-07-25T10:03:35.783Z,99841.00
2022-07-25T10:04:59.897Z,99828.66
2022-07-25T10:06:41.099Z,99824.16
2022-07-25T10:07:47.618Z,99837.47
2022-07-25T10:08:51.367Z,99833.78
2022-07-25T10:09:55.753Z,99832.97
2022-07-25T10:10:58.270Z,99828.50
2022-07-25T10:12:05.041Z,99825.25
2022-07-25T10:13:11.548Z,99823.31
2022-07-25T10:14:14.052Z,99824.59
2022-07-25T10:15:16.306Z,99822.19
2022-07-25T10:16:21.355Z,99821.38
2022-07-25T10:17:23.724Z,99823.13
2022-07-25T10:18:31.200Z,99820.22
2022-07-25T10:19:58.306Z,99821.63
2022-07-25T10:21:28.725Z,99818.75
2022-07-25T10:22:58.591Z,99825.44
2022-07-25T10:24:06.210Z,99825.44
2022-07-25T10:25:27.133Z,99823.88
2022-07-25T10:26:30.086Z,99822.03
2022-07-25T10:27:44.745Z,99812.59
2022-07-25T10:28:48.511Z,99803.75
2022-07-25T10:29:54.453Z,99812.53
2022-07-25T10:30:59.786Z,99812.19
2022-07-25T10:32:13.256Z,99808.16
2022-07-25T10:33:18.741Z,99816.16
2022-07-25T10:34:33.893Z,99809.72
2022-07-25T10:35:36.633Z,99806.97
2022-07-25T10:36:56.388Z,99799.25
2022-07-25T10:37:59.628Z,99797.63
2022-07-25T10:39:02.275Z,99796.47
2022-07-25T10:40:04.784Z,99783.00
2022-07-25T10:41:09.167Z,99790.03
2022-07-25T10:42:16.426Z,99795.44
2022-07-25T10:43:32.307Z,99793.03
2022-07-25T10:44:44.896Z,99792.38
2022-07-25T10:45:57.021Z,99798.63
2022-07-25T10:47:06.789Z,99784.69
2022-07-25T10:48:27.670Z,99787.22
2022-07-25T10:49:36.528Z,99783.19
2022-07-25T10:51:13.182Z,99780.59
2022-07-25T10:52:17.862Z,99778.16
2022-07-25T10:53:51.430Z,99774.94
2022-07-25T10:54:58.624Z,99772.31
2022-07-25T10:56:06.963Z,99767.47
2022-07-25T10:57:15.824Z,99772.19
2022-07-25T10:58:18.521Z,99764.97
2022-07-25T10:59:40.106Z,99774.22
2022-07-25T11:00:45.435Z,99756.69
2022-07-25T11:01:51.013Z,99765.44
2022-07-25T11:02:57.546Z,99764.78
2022-07-25T11:04:06.315Z,99763.63
2022-07-25T11:05:09.056Z,99762.16
2022-07-25T11:06:15.568Z,99763.06
2022-07-25T11:07:18.069Z,99758.69
2022-07-25T11:08:30.938Z,99756.72
2022-07-25T11:09:34.340Z,99760.06
2022-07-25T11:10:36.631Z,99748.22
2022-07-25T11:11:41.179Z,99749.97
2022-07-25T11:12:46.276Z,99754.91
2022-07-25T11:13:50.288Z,99753.75
2022-07-25T11:15:02.749Z,99747.19
2022-07-25T11:16:06.923Z,99735.31
2022-07-25T11:17:22.631Z,99743.16
2022-07-25T11:18:41.744Z,99742.00
2022-07-25T11:20:00.273Z,99744.53
2022-07-25T11:21:06.585Z,99729.00
2022-07-25T11:22:09.635Z,99733.28
2022-07-25T11:23:11.897Z,99738.81
2022-07-25T11:24:14.289Z,99737.44
2022-07-25T11:25:16.569Z,99747.44
2022-07-25T11:26:19.224Z,99732.69
2022-07-25T11:27:28.134Z,99733.63
2022-07-25T11:28:53.572Z,99736.25
2022-07-25T11:30:09.682Z,99737.53
2022-07-25T11:31:14.564Z,99724.06
2022-07-25T11:32:17.067Z,99725.00
2022-07-25T11:33:19.429Z,99721.28
2022-07-25T11:34:24.780Z,99723.38
2022-07-25T11:35:33.854Z,99728.78
2022-07-25T11:36:36.940Z,99725.56
2022-07-25T11:37:43.777Z,99712.44
2022-07-25T11:38:49.745Z,99717.03
2022-07-25T11:39:56.236Z,99719.13
2022-07-25T11:40:58.860Z,99710.13
2022-07-25T11:42:03.558Z,99712.22
2022-07-25T11:43:05.791Z,99704.50
2022-07-25T11:44:08.485Z,99709.44
2022-07-25T11:45:31.201Z,99707.03
2022-07-25T11:46:44.786Z,99717.38
2022-07-25T11:47:49.380Z,99704.72
2022-07-25T11:48:51.661Z,99704.34
2022-07-25T11:49:56.061Z,99705.59
2022-07-25T11:50:58.295Z,99702.84
2022-07-25T11:52:00.527Z,99702.50
2022-07-25T11:53:05.109Z,99703.44
2022-07-25T11:54:11.202Z,99697.00
2022-07-25T11:55:17.253Z,99689.72
2022-07-25T11:57:47.139Z,99694.78
2022-07-25T11:59:00.257Z,99698.56
2022-07-25T12:00:07.242Z,99685.91
2022-07-25T12:01:15.594Z,99684.75
2022-07-25T12:02:25.469Z,99691.09
2022-07-25T12:03:38.023Z,99682.56
2022-07-25T12:04:40.436Z,99691.28
2022-07-25T12:05:43.285Z,99695.38
2022-07-25T12:06:47.957Z,99691.47
2022-07-25T12:07:53.212Z,99685.38
2022-07-25T12:08:55.401Z,99678.47
2022-07-25T12:09:58.253Z,99678.94
2022-07-25T12:12:17.309Z,99675.09
2022-07-25T12:13:26.314Z,99672.31
2022-07-25T12:14:32.306Z,99688.41
2022-07-25T12:15:40.230Z,99687.69
2022-07-25T12:16:42.702Z,99681.72
2022-07-25T12:17:46.429Z,99678.47
2022-07-25T12:18:48.612Z,99673.66
2022-07-25T12:19:50.800Z,99681.19
2022-07-25T12:20:53.765Z,99669.44
2022-07-25T12:21:55.960Z,99668.75
2022-07-25T12:23:01.971Z,99668.81
2022-07-25T12:24:06.542Z,99674.22
2022-07-25T12:25:09.756Z,99677.19
2022-07-25T12:26:13.619Z,99658.81
2022-07-25T12:27:15.880Z,99671.19